Crestview Terrace, Illinois
Current Conditions -  °F | °C
As of 12:35 AM on Wednesday 28 Jan 2015 (Local Time) from KFWC Reporting Station
Clear Clear  
Wind Chill: 27°   Ceiling: Unl
Heat Index: 27°   Visibility: 7mi
Dew Point: 25°   Wind: 3mph
Humidity: 91%   Direction: 50°NE
Pressure: 30.26"   Gusts: NA
Location:  38.3669°N, 88.3516°W
Report Text: KFWC 280635Z AUTO 05003KT 7SM CLR M03/M04 A3026 RMK AO1 T10271040
Loading
Personal Weather Stations






























Interactive Weather Map New forecast layout! Learn more

10-Day Weather Forecast

Advertisements
Track Severe Weather on mobile